sensor_id;sensor_type;location;lat;lon;timestamp;temperature;humidity
43227;DHT22;28839;52.404;9.808;2023-06-26T00:04:10;20.40;99.90
43227;DHT22;28839;52.404;9.808;2023-06-26T00:11:08;20.30;99.90
43227;DHT22;28839;52.404;9.808;2023-06-26T00:18:01;20.20;99.90
43227;DHT22;28839;52.404;9.808;2023-06-26T00:24:56;20.20;99.90
43227;DHT22;28839;52.404;9.808;2023-06-26T00:31:51;20.10;99.90
43227;DHT22;28839;52.404;9.808;2023-06-26T00:38:44;19.90;99.90
43227;DHT22;28839;52.404;9.808;2023-06-26T00:45:38;19.90;99.90
43227;DHT22;28839;52.404;9.808;2023-06-26T00:52:33;19.80;99.90
43227;DHT22;28839;52.404;9.808;2023-06-26T00:59:27;19.80;99.90
43227;DHT22;28839;52.404;9.808;2023-06-26T01:06:23;19.70;99.90
43227;DHT22;28839;52.404;9.808;2023-06-26T01:13:20;19.70;99.90
43227;DHT22;28839;52.404;9.808;2023-06-26T01:20:14;19.70;99.90
43227;DHT22;28839;52.404;9.808;2023-06-26T01:27:11;19.70;99.90
43227;DHT22;28839;52.404;9.808;2023-06-26T01:34:06;19.60;99.90
43227;DHT22;28839;52.404;9.808;2023-06-26T01:41:00;19.60;99.90
43227;DHT22;28839;52.404;9.808;2023-06-26T01:48:15;19.50;99.90
43227;DHT22;28839;52.404;9.808;2023-06-26T01:55:17;19.40;99.90
43227;DHT22;28839;52.404;9.808;2023-06-26T02:02:13;19.30;99.90
43227;DHT22;28839;52.404;9.808;2023-06-26T02:09:08;19.20;99.90
43227;DHT22;28839;52.404;9.808;2023-06-26T02:16:03;19.20;99.90
43227;DHT22;28839;52.404;9.808;2023-06-26T02:22:58;19.20;99.90
43227;DHT22;28839;52.404;9.808;2023-06-26T02:29:53;19.10;99.90
43227;DHT22;28839;52.404;9.808;2023-06-26T02:36:47;19.00;99.90
43227;DHT22;28839;52.404;9.808;2023-06-26T02:43:41;19.00;99.90
43227;DHT22;28839;52.404;9.808;2023-06-26T02:50:36;19.00;99.90
43227;DHT22;28839;52.404;9.808;2023-06-26T02:57:30;19.10;99.90
43227;DHT22;28839;52.404;9.808;2023-06-26T03:04:23;19.00;99.90
43227;DHT22;28839;52.404;9.808;2023-06-26T03:11:19;18.90;99.90
43227;DHT22;28839;52.404;9.808;2023-06-26T03:18:12;18.90;99.90
43227;DHT22;28839;52.404;9.808;2023-06-26T03:25:07;18.90;99.90
43227;DHT22;28839;52.404;9.808;2023-06-26T03:32:02;18.90;99.90
43227;DHT22;28839;52.404;9.808;2023-06-26T03:38:55;19.00;99.90
43227;DHT22;28839;52.404;9.808;2023-06-26T03:45:49;19.00;99.90
43227;DHT22;28839;52.404;9.808;2023-06-26T03:52:45;19.00;99.90
43227;DHT22;28839;52.404;9.808;2023-06-26T03:59:38;19.10;99.90
43227;DHT22;28839;52.404;9.808;2023-06-26T04:06:32;19.20;99.90
43227;DHT22;28839;52.404;9.808;2023-06-26T04:13:28;19.40;99.90
43227;DHT22;28839;52.404;9.808;2023-06-26T04:20:22;19.60;99.90
43227;DHT22;28839;52.404;9.808;2023-06-26T04:27:15;19.90;99.90
43227;DHT22;28839;52.404;9.808;2023-06-26T04:34:11;20.50;99.90
43227;DHT22;28839;52.404;9.808;2023-06-26T04:41:04;20.70;99.90
43227;DHT22;28839;52.404;9.808;2023-06-26T04:47:58;21.10;99.90
43227;DHT22;28839;52.404;9.808;2023-06-26T04:54:54;21.30;99.90
43227;DHT22;28839;52.404;9.808;2023-06-26T05:01:48;21.50;99.90
43227;DHT22;28839;52.404;9.808;2023-06-26T05:08:42;21.60;99.90
43227;DHT22;28839;52.404;9.808;2023-06-26T05:15:37;21.80;99.90
43227;DHT22;28839;52.404;9.808;2023-06-26T05:22:32;22.10;99.90
43227;DHT22;28839;52.404;9.808;2023-06-26T05:29:29;22.60;99.90
43227;DHT22;28839;52.404;9.808;2023-06-26T05:36:25;23.00;99.90
43227;DHT22;28839;52.404;9.808;2023-06-26T05:43:22;23.30;99.90
43227;DHT22;28839;52.404;9.808;2023-06-26T05:50:18;23.70;99.90
43227;DHT22;28839;52.404;9.808;2023-06-26T05:57:15;23.90;99.90
43227;DHT22;28839;52.404;9.808;2023-06-26T06:04:09;24.00;99.90
43227;DHT22;28839;52.404;9.808;2023-06-26T06:11:03;24.00;99.90
43227;DHT22;28839;52.404;9.808;2023-06-26T06:17:59;24.20;99.90
43227;DHT22;28839;52.404;9.808;2023-06-26T06:24:52;24.80;99.90
43227;DHT22;28839;52.404;9.808;2023-06-26T06:31:46;24.40;99.90
43227;DHT22;28839;52.404;9.808;2023-06-26T06:38:44;25.20;99.90
43227;DHT22;28839;52.404;9.808;2023-06-26T06:45:38;25.30;99.90
43227;DHT22;28839;52.404;9.808;2023-06-26T06:52:32;25.90;99.90
43227;DHT22;28839;52.404;9.808;2023-06-26T06:59:27;26.00;99.90
43227;DHT22;28839;52.404;9.808;2023-06-26T07:06:20;25.70;99.90
43227;DHT22;28839;52.404;9.808;2023-06-26T07:13:14;26.70;99.90
43227;DHT22;28839;52.404;9.808;2023-06-26T07:20:10;26.60;99.90
43227;DHT22;28839;52.404;9.808;2023-06-26T07:27:07;27.20;99.90
43227;DHT22;28839;52.404;9.808;2023-06-26T07:34:01;28.30;99.90
43227;DHT22;28839;52.404;9.808;2023-06-26T07:40:56;27.70;99.90
43227;DHT22;28839;52.404;9.808;2023-06-26T07:47:50;27.80;99.90
43227;DHT22;28839;52.404;9.808;2023-06-26T07:54:44;28.70;99.90
43227;DHT22;28839;52.404;9.808;2023-06-26T08:01:39;28.30;99.90
43227;DHT22;28839;52.404;9.808;2023-06-26T08:08:33;29.30;99.90
43227;DHT22;28839;52.404;9.808;2023-06-26T08:15:27;29.00;99.90
43227;DHT22;28839;52.404;9.808;2023-06-26T08:22:23;29.20;99.90
43227;DHT22;28839;52.404;9.808;2023-06-26T08:29:17;29.20;99.90
43227;DHT22;28839;52.404;9.808;2023-06-26T08:36:11;29.60;99.90
43227;DHT22;28839;52.404;9.808;2023-06-26T08:43:06;29.50;99.90
43227;DHT22;28839;52.404;9.808;2023-06-26T08:50:07;30.00;99.90
43227;DHT22;28839;52.404;9.808;2023-06-26T08:57:02;30.30;99.90
43227;DHT22;28839;52.404;9.808;2023-06-26T09:03:58;30.70;99.90
43227;DHT22;28839;52.404;9.808;2023-06-26T09:10:52;30.50;99.90
43227;DHT22;28839;52.404;9.808;2023-06-26T09:17:47;30.10;99.90
43227;DHT22;28839;52.404;9.808;2023-06-26T09:24:43;30.10;99.90
43227;DHT22;28839;52.404;9.808;2023-06-26T09:31:37;29.80;99.90
43227;DHT22;28839;52.404;9.808;2023-06-26T09:38:32;29.20;99.90
43227;DHT22;28839;52.404;9.808;2023-06-26T09:45:27;28.60;99.90
43227;DHT22;28839;52.404;9.808;2023-06-26T09:52:21;28.10;99.90
43227;DHT22;28839;52.404;9.808;2023-06-26T09:59:16;27.20;99.90
43227;DHT22;28839;52.404;9.808;2023-06-26T10:06:12;26.70;99.90
43227;DHT22;28839;52.404;9.808;2023-06-26T10:13:11;26.30;99.90
43227;DHT22;28839;52.404;9.808;2023-06-26T10:20:09;26.20;99.90
43227;DHT22;28839;52.404;9.808;2023-06-26T10:27:10;25.60;99.90
43227;DHT22;28839;52.404;9.808;2023-06-26T10:34:05;25.00;99.90
43227;DHT22;28839;52.404;9.808;2023-06-26T10:41:10;24.50;99.90
43227;DHT22;28839;52.404;9.808;2023-06-26T10:48:05;24.20;99.90
43227;DHT22;28839;52.404;9.808;2023-06-26T10:55:01;23.00;99.90
43227;DHT22;28839;52.404;9.808;2023-06-26T11:01:56;22.80;99.90
43227;DHT22;28839;52.404;9.808;2023-06-26T11:08:53;23.00;99.90
43227;DHT22;28839;52.404;9.808;2023-06-26T11:15:49;23.20;99.90
43227;DHT22;28839;52.404;9.808;2023-06-26T11:22:43;23.30;99.90
43227;DHT22;28839;52.404;9.808;2023-06-26T11:29:47;23.40;99.90
43227;DHT22;28839;52.404;9.808;2023-06-26T11:36:42;23.60;99.90
43227;DHT22;28839;52.404;9.808;2023-06-26T11:43:39;23.50;99.90
43227;DHT22;28839;52.404;9.808;2023-06-26T11:50:37;23.30;99.90
43227;DHT22;28839;52.404;9.808;2023-06-26T11:57:31;23.50;99.90
43227;DHT22;28839;52.404;9.808;2023-06-26T12:04:24;23.60;99.90
43227;DHT22;28839;52.404;9.808;2023-06-26T12:11:20;23.60;99.90
43227;DHT22;28839;52.404;9.808;2023-06-26T12:18:15;23.70;99.90
43227;DHT22;28839;52.404;9.808;2023-06-26T12:25:09;23.80;99.90
43227;DHT22;28839;52.404;9.808;2023-06-26T12:32:08;24.40;99.90
43227;DHT22;28839;52.404;9.808;2023-06-26T12:39:02;25.00;99.90
43227;DHT22;28839;52.404;9.808;2023-06-26T12:45:56;25.40;99.90
43227;DHT22;28839;52.404;9.808;2023-06-26T12:52:52;24.90;99.90
43227;DHT22;28839;52.404;9.808;2023-06-26T12:59:46;24.60;99.90
43227;DHT22;28839;52.404;9.808;2023-06-26T13:06:40;24.70;99.90
43227;DHT22;28839;52.404;9.808;2023-06-26T13:13:35;24.60;99.90
43227;DHT22;28839;52.404;9.808;2023-06-26T13:20:29;24.30;99.90
43227;DHT22;28839;52.404;9.808;2023-06-26T13:27:23;24.30;99.90
43227;DHT22;28839;52.404;9.808;2023-06-26T13:34:22;25.50;99.90
43227;DHT22;28839;52.404;9.808;2023-06-26T13:41:16;25.20;99.90
43227;DHT22;28839;52.404;9.808;2023-06-26T13:48:12;25.10;99.90
43227;DHT22;28839;52.404;9.808;2023-06-26T13:55:08;25.10;99.90
43227;DHT22;28839;52.404;9.808;2023-06-26T14:02:02;25.20;99.90
43227;DHT22;28839;52.404;9.808;2023-06-26T14:08:57;25.40;99.90
43227;DHT22;28839;52.404;9.808;2023-06-26T14:15:53;25.40;99.90
43227;DHT22;28839;52.404;9.808;2023-06-26T14:22:49;25.60;99.90
43227;DHT22;28839;52.404;9.808;2023-06-26T14:29:43;25.90;99.90
43227;DHT22;28839;52.404;9.808;2023-06-26T14:36:38;26.40;99.90
43227;DHT22;28839;52.404;9.808;2023-06-26T14:43:32;25.90;99.90
43227;DHT22;28839;52.404;9.808;2023-06-26T14:50:26;25.70;99.90
43227;DHT22;28839;52.404;9.808;2023-06-26T14:57:21;25.10;99.90
43227;DHT22;28839;52.404;9.808;2023-06-26T15:04:15;24.90;99.90
43227;DHT22;28839;52.404;9.808;2023-06-26T15:11:08;24.60;99.90
43227;DHT22;28839;52.404;9.808;2023-06-26T15:18:04;24.20;99.90
43227;DHT22;28839;52.404;9.808;2023-06-26T15:24:58;24.00;99.90
43227;DHT22;28839;52.404;9.808;2023-06-26T15:31:52;23.90;99.90
43227;DHT22;28839;52.404;9.808;2023-06-26T15:38:48;24.10;99.90
43227;DHT22;28839;52.404;9.808;2023-06-26T15:45:42;24.10;99.90
43227;DHT22;28839;52.404;9.808;2023-06-26T15:52:37;24.50;99.90
43227;DHT22;28839;52.404;9.808;2023-06-26T15:59:33;23.90;99.90
43227;DHT22;28839;52.404;9.808;2023-06-26T16:06:27;23.90;99.90
43227;DHT22;28839;52.404;9.808;2023-06-26T16:13:20;23.80;99.90
43227;DHT22;28839;52.404;9.808;2023-06-26T16:20:16;23.60;99.90
43227;DHT22;28839;52.404;9.808;2023-06-26T16:27:10;23.40;99.90
43227;DHT22;28839;52.404;9.808;2023-06-26T16:34:04;23.50;99.90
43227;DHT22;28839;52.404;9.808;2023-06-26T16:40:59;23.20;99.90
43227;DHT22;28839;52.404;9.808;2023-06-26T16:47:53;23.10;99.90
43227;DHT22;28839;52.404;9.808;2023-06-26T16:54:46;22.90;99.90
43227;DHT22;28839;52.404;9.808;2023-06-26T17:01:41;22.80;99.90
43227;DHT22;28839;52.404;9.808;2023-06-26T17:08:36;22.80;99.90
43227;DHT22;28839;52.404;9.808;2023-06-26T17:15:30;22.90;99.90
43227;DHT22;28839;52.404;9.808;2023-06-26T17:22:25;23.00;99.90
43227;DHT22;28839;52.404;9.808;2023-06-26T17:29:19;22.80;99.90
43227;DHT22;28839;52.404;9.808;2023-06-26T17:36:12;22.40;99.90
43227;DHT22;28839;52.404;9.808;2023-06-26T17:43:08;22.30;99.90
43227;DHT22;28839;52.404;9.808;2023-06-26T17:50:02;22.30;99.90
43227;DHT22;28839;52.404;9.808;2023-06-26T17:56:56;22.20;99.90
43227;DHT22;28839;52.404;9.808;2023-06-26T18:03:51;22.00;99.90
43227;DHT22;28839;52.404;9.808;2023-06-26T18:10:45;21.90;99.90
43227;DHT22;28839;52.404;9.808;2023-06-26T18:17:39;21.80;99.90
43227;DHT22;28839;52.404;9.808;2023-06-26T18:24:34;21.70;99.90
43227;DHT22;28839;52.404;9.808;2023-06-26T18:31:28;21.50;99.90
43227;DHT22;28839;52.404;9.808;2023-06-26T18:38:22;21.60;99.90
43227;DHT22;28839;52.404;9.808;2023-06-26T18:45:18;21.70;99.90
43227;DHT22;28839;52.404;9.808;2023-06-26T18:52:12;21.50;99.90
43227;DHT22;28839;52.404;9.808;2023-06-26T18:59:05;21.30;99.90
43227;DHT22;28839;52.404;9.808;2023-06-26T19:06:00;21.20;99.90
43227;DHT22;28839;52.404;9.808;2023-06-26T19:12:54;21.00;99.90
43227;DHT22;28839;52.404;9.808;2023-06-26T19:19:49;21.00;99.90
43227;DHT22;28839;52.404;9.808;2023-06-26T19:26:45;20.70;99.90
43227;DHT22;28839;52.404;9.808;2023-06-26T19:33:39;20.70;99.90
43227;DHT22;28839;52.404;9.808;2023-06-26T19:40:35;20.60;99.90
43227;DHT22;28839;52.404;9.808;2023-06-26T19:47:31;20.00;99.90
43227;DHT22;28839;52.404;9.808;2023-06-26T19:54:28;19.60;99.90
43227;DHT22;28839;52.404;9.808;2023-06-26T20:01:22;19.40;99.90
43227;DHT22;28839;52.404;9.808;2023-06-26T20:08:18;19.20;99.90
43227;DHT22;28839;52.404;9.808;2023-06-26T20:15:12;19.20;99.90
43227;DHT22;28839;52.404;9.808;2023-06-26T20:22:06;18.90;99.90
43227;DHT22;28839;52.404;9.808;2023-06-26T20:29:01;18.90;99.90
43227;DHT22;28839;52.404;9.808;2023-06-26T20:35:55;18.70;99.90
43227;DHT22;28839;52.404;9.808;2023-06-26T20:42:49;18.70;99.90
43227;DHT22;28839;52.404;9.808;2023-06-26T20:49:45;18.60;99.90
43227;DHT22;28839;52.404;9.808;2023-06-26T20:56:39;18.70;99.90
43227;DHT22;28839;52.404;9.808;2023-06-26T21:03:33;18.60;99.90
43227;DHT22;28839;52.404;9.808;2023-06-26T21:10:28;18.60;99.90
43227;DHT22;28839;52.404;9.808;2023-06-26T21:17:22;18.50;99.90
43227;DHT22;28839;52.404;9.808;2023-06-26T21:24:16;18.40;99.90
43227;DHT22;28839;52.404;9.808;2023-06-26T21:31:11;18.30;99.90
43227;DHT22;28839;52.404;9.808;2023-06-26T21:38:05;18.30;99.90
43227;DHT22;28839;52.404;9.808;2023-06-26T21:44:58;18.20;99.90
43227;DHT22;28839;52.404;9.808;2023-06-26T21:51:53;17.90;99.90
43227;DHT22;28839;52.404;9.808;2023-06-26T21:58:47;17.90;99.90
43227;DHT22;28839;52.404;9.808;2023-06-26T22:05:41;17.80;99.90
43227;DHT22;28839;52.404;9.808;2023-06-26T22:12:37;17.60;99.90
43227;DHT22;28839;52.404;9.808;2023-06-26T22:19:31;17.50;99.90
43227;DHT22;28839;52.404;9.808;2023-06-26T22:26:24;17.50;99.90
43227;DHT22;28839;52.404;9.808;2023-06-26T22:33:20;17.20;99.90
43227;DHT22;28839;52.404;9.808;2023-06-26T22:40:14;17.10;99.90
43227;DHT22;28839;52.404;9.808;2023-06-26T22:47:08;16.90;99.90
43227;DHT22;28839;52.404;9.808;2023-06-26T22:54:03;16.90;99.90
43227;DHT22;28839;52.404;9.808;2023-06-26T23:00:57;16.90;99.90
43227;DHT22;28839;52.404;9.808;2023-06-26T23:07:53;16.60;99.90
43227;DHT22;28839;52.404;9.808;2023-06-26T23:14:48;16.60;99.90
43227;DHT22;28839;52.404;9.808;2023-06-26T23:21:42;16.40;99.90
43227;DHT22;28839;52.404;9.808;2023-06-26T23:28:36;16.30;99.90
43227;DHT22;28839;52.404;9.808;2023-06-26T23:35:31;16.20;99.90
43227;DHT22;28839;52.404;9.808;2023-06-26T23:42:25;16.10;99.90
43227;DHT22;28839;52.404;9.808;2023-06-26T23:49:19;16.10;99.90
43227;DHT22;28839;52.404;9.808;2023-06-26T23:56:14;15.90;99.90
